createdAt,value
2023-04-03T00:01:41.871Z,99.90
2023-04-03T00:04:10.796Z,99.90
2023-04-03T00:06:39.828Z,99.90
2023-04-03T00:09:10.596Z,99.90
2023-04-03T00:11:39.374Z,99.90
2023-04-03T00:14:08.031Z,99.90
2023-04-03T00:16:38.589Z,99.90
2023-04-03T00:19:07.457Z,99.90
2023-04-03T00:21:36.014Z,99.90
2023-04-03T00:24:04.702Z,99.90
2023-04-03T00:26:33.735Z,99.90
2023-04-03T00:29:02.350Z,99.90
2023-04-03T00:31:31.046Z,99.90
2023-04-03T00:34:01.145Z,99.90
2023-04-03T00:36:29.908Z,99.90
2023-04-03T00:38:58.764Z,99.90
2023-04-03T00:41:27.818Z,99.90
2023-04-03T00:43:56.410Z,99.90
2023-04-03T00:46:25.039Z,99.90
2023-04-03T00:49:06.272Z,99.90
2023-04-03T00:51:35.108Z,99.90
2023-04-03T00:54:15.016Z,99.90
2023-04-03T00:56:47.176Z,99.90
2023-04-03T00:59:19.203Z,99.90
2023-04-03T01:01:49.329Z,99.90
2023-04-03T01:04:31.957Z,99.90
2023-04-03T01:07:04.050Z,99.90
2023-04-03T01:09:33.922Z,99.90
2023-04-03T01:12:18.014Z,99.90
2023-04-03T01:14:47.276Z,99.90
2023-04-03T01:17:38.916Z,99.90
2023-04-03T01:20:40.830Z,99.90
2023-04-03T01:23:20.307Z,99.90
2023-04-03T01:25:50.823Z,99.90
2023-04-03T01:28:21.616Z,99.90
2023-04-03T01:30:55.557Z,99.90
2023-04-03T01:33:25.644Z,99.90
2023-04-03T01:35:54.301Z,99.90
2023-04-03T01:38:22.944Z,99.90
2023-04-03T01:40:51.792Z,99.90
2023-04-03T01:43:20.478Z,99.90
2023-04-03T01:45:50.448Z,99.90
2023-04-03T01:48:19.756Z,99.90
2023-04-03T01:50:49.694Z,99.90
2023-04-03T01:53:18.294Z,99.90
2023-04-03T01:55:46.814Z,99.90
2023-04-03T01:58:15.551Z,99.90
2023-04-03T02:00:44.046Z,99.90
2023-04-03T02:03:12.964Z,99.90
2023-04-03T02:05:42.101Z,99.90
2023-04-03T02:08:12.363Z,99.90
2023-04-03T02:10:40.975Z,99.90
2023-04-03T02:13:09.616Z,99.90
2023-04-03T02:15:40.905Z,99.90
2023-04-03T02:18:10.085Z,99.90
2023-04-03T02:20:39.442Z,99.90
2023-04-03T02:23:08.440Z,99.90
2023-04-03T02:25:38.917Z,99.90
2023-04-03T02:28:08.063Z,99.90
2023-04-03T02:30:37.293Z,99.90
2023-04-03T02:33:06.131Z,99.90
2023-04-03T02:35:34.743Z,99.90
2023-04-03T02:38:03.364Z,99.90
2023-04-03T02:40:31.859Z,99.90
2023-04-03T02:43:01.715Z,99.90
2023-04-03T02:45:30.703Z,99.90
2023-04-03T02:47:59.281Z,99.90
2023-04-03T02:50:27.884Z,99.90
2023-04-03T02:52:56.462Z,99.90
2023-04-03T02:55:25.304Z,99.90
2023-04-03T02:57:53.963Z,99.90
2023-04-03T03:00:24.379Z,99.90
2023-04-03T03:02:53.109Z,99.90
2023-04-03T03:05:22.604Z,99.90
2023-04-03T03:07:51.291Z,99.90
2023-04-03T03:10:19.903Z,99.90
2023-04-03T03:12:48.461Z,99.90
2023-04-03T03:15:18.466Z,99.90
2023-04-03T03:17:48.416Z,99.90
2023-04-03T03:20:17.139Z,99.90
2023-04-03T03:22:45.871Z,99.90
2023-04-03T03:25:14.819Z,99.90
2023-04-03T03:27:43.331Z,99.90
2023-04-03T03:30:12.647Z,99.90
2023-04-03T03:32:41.223Z,99.90
2023-04-03T03:35:11.664Z,99.90
2023-04-03T03:37:40.314Z,99.90
2023-04-03T03:40:10.495Z,99.90
2023-04-03T03:42:38.941Z,99.90
2023-04-03T03:45:08.733Z,99.90
2023-04-03T03:47:37.994Z,99.90
2023-04-03T03:50:08.298Z,99.90
2023-04-03T03:52:38.197Z,99.90
2023-04-03T03:55:07.271Z,99.90
2023-04-03T03:57:35.838Z,99.90
2023-04-03T04:00:05.239Z,99.90
2023-04-03T04:02:33.859Z,99.90
2023-04-03T04:05:02.770Z,99.90
2023-04-03T04:07:31.533Z,99.90
2023-04-03T04:10:01.631Z,99.90
2023-04-03T04:12:30.268Z,99.90
2023-04-03T04:14:59.087Z,99.90
2023-04-03T04:17:27.697Z,99.90
2023-04-03T04:19:56.345Z,99.90
2023-04-03T04:22:24.930Z,99.90
2023-04-03T04:24:53.658Z,99.90
2023-04-03T04:27:23.613Z,99.90
2023-04-03T04:29:52.107Z,99.90
2023-04-03T04:32:20.666Z,99.90
2023-04-03T04:34:49.267Z,99.90
2023-04-03T04:37:17.769Z,99.90
2023-04-03T04:39:46.310Z,99.90
2023-04-03T04:42:17.444Z,99.90
2023-04-03T04:44:47.829Z,99.90
2023-04-03T04:47:16.380Z,99.90
2023-04-03T04:49:45.058Z,99.90
2023-04-03T04:52:13.837Z,99.90
2023-04-03T04:54:42.437Z,99.90
2023-04-03T04:57:12.174Z,99.90
2023-04-03T04:59:41.601Z,99.90
2023-04-03T05:02:12.197Z,99.90
2023-04-03T05:04:40.775Z,99.90
2023-04-03T05:07:09.746Z,99.90
2023-04-03T05:09:38.839Z,99.90
2023-04-03T05:12:07.613Z,99.90
2023-04-03T05:14:36.117Z,99.90
2023-04-03T05:17:04.868Z,99.90
2023-04-03T05:19:34.854Z,99.90
2023-04-03T05:22:03.678Z,99.90
2023-04-03T05:24:32.317Z,99.90
2023-04-03T05:27:00.845Z,99.90
2023-04-03T05:29:29.441Z,99.90
2023-04-03T05:31:58.102Z,99.90
2023-04-03T05:34:27.001Z,99.90
2023-04-03T05:36:57.039Z,99.90
2023-04-03T05:39:26.662Z,99.90
2023-04-03T05:41:55.474Z,99.90
2023-04-03T05:44:23.966Z,99.90
2023-04-03T05:46:52.530Z,99.90
2023-04-03T05:49:21.023Z,99.90
2023-04-03T05:51:49.917Z,99.90
2023-04-03T05:54:24.156Z,99.90
2023-04-03T05:56:53.123Z,99.90
2023-04-03T05:59:22.604Z,99.90
2023-04-03T06:01:51.394Z,99.90
2023-04-03T06:04:20.324Z,99.90
2023-04-03T06:06:52.630Z,99.90
2023-04-03T06:09:25.767Z,99.90
2023-04-03T06:11:54.386Z,99.90
2023-04-03T06:14:23.353Z,99.90
2023-04-03T06:16:51.950Z,99.90
2023-04-03T06:19:21.370Z,99.90
2023-04-03T06:21:49.928Z,99.90
2023-04-03T06:24:19.865Z,99.90
2023-04-03T06:26:51.029Z,99.90
2023-04-03T06:29:19.633Z,99.90
2023-04-03T06:31:48.436Z,99.90
2023-04-03T06:34:18.198Z,99.90
2023-04-03T06:36:47.452Z,99.90
2023-04-03T06:39:17.405Z,99.90
2023-04-03T06:41:46.529Z,99.90
2023-04-03T06:44:17.190Z,99.90
2023-04-03T06:46:46.700Z,99.90
2023-04-03T06:49:16.173Z,99.90
2023-04-03T06:51:44.871Z,99.90
2023-04-03T06:54:13.975Z,99.90
2023-04-03T06:56:42.780Z,99.90
2023-04-03T06:59:12.804Z,99.90
2023-04-03T07:01:43.549Z,99.90
2023-04-03T07:04:12.180Z,99.90
2023-04-03T07:06:40.914Z,99.90
2023-04-03T07:09:10.160Z,99.90
2023-04-03T07:11:39.043Z,99.90
2023-04-03T07:14:08.820Z,99.90
2023-04-03T07:16:40.005Z,99.90
2023-04-03T07:19:10.949Z,99.90
2023-04-03T07:21:40.082Z,99.90
2023-04-03T07:24:11.331Z,99.90
2023-04-03T07:26:44.170Z,99.90
2023-04-03T07:29:12.874Z,99.90
2023-04-03T07:31:42.752Z,99.90
2023-04-03T07:34:12.946Z,99.90
2023-04-03T07:36:41.928Z,99.90
2023-04-03T07:39:10.506Z,99.90
2023-04-03T07:41:39.427Z,99.90
2023-04-03T07:44:10.780Z,99.90
2023-04-03T07:46:40.303Z,99.90
2023-04-03T07:49:08.837Z,99.90
2023-04-03T07:51:39.644Z,99.90
2023-04-03T07:54:08.673Z,99.90
2023-04-03T07:56:37.341Z,99.90
2023-04-03T07:59:06.425Z,99.90
2023-04-03T08:01:35.147Z,99.90
2023-04-03T08:04:03.929Z,99.90
2023-04-03T08:06:45.516Z,99.90
2023-04-03T08:09:17.485Z,99.90
2023-04-03T08:11:48.205Z,99.90
2023-04-03T08:14:19.633Z,99.90
2023-04-03T08:16:49.282Z,99.90
2023-04-03T08:19:26.156Z,99.90
2023-04-03T08:21:57.962Z,99.90
2023-04-03T08:24:28.339Z,99.90
2023-04-03T08:26:57.385Z,99.90
2023-04-03T08:29:26.622Z,99.90
2023-04-03T08:31:55.840Z,99.90
2023-04-03T08:34:24.910Z,99.90
2023-04-03T08:36:53.492Z,99.90
2023-04-03T08:39:22.127Z,99.90
2023-04-03T08:41:52.415Z,99.90
2023-04-03T08:44:28.100Z,99.90
2023-04-03T08:47:12.028Z,99.90
2023-04-03T08:49:48.457Z,99.90
2023-04-03T08:52:20.874Z,99.90
2023-04-03T08:54:55.019Z,99.90
2023-04-03T08:57:32.047Z,99.90
2023-04-03T09:00:06.324Z,99.90
2023-04-03T09:02:42.764Z,99.90
2023-04-03T09:05:15.490Z,99.90
2023-04-03T09:07:50.090Z,99.90
2023-04-03T09:10:26.969Z,99.90
2023-04-03T09:13:05.440Z,99.90
2023-04-03T09:15:39.059Z,99.90
2023-04-03T09:18:17.012Z,99.90
2023-04-03T09:20:52.489Z,99.90
2023-04-03T09:23:30.377Z,99.90
2023-04-03T09:26:06.144Z,99.90
2023-04-03T09:28:49.273Z,99.90
2023-04-03T09:31:24.396Z,99.90
2023-04-03T09:33:56.812Z,99.90
2023-04-03T09:36:46.426Z,99.90
2023-04-03T09:39:18.495Z,99.90
2023-04-03T09:42:00.770Z,99.90
2023-04-03T09:44:33.125Z,99.90
2023-04-03T09:47:02.437Z,99.90
2023-04-03T09:49:31.512Z,99.90
2023-04-03T09:52:20.518Z,99.90
2023-04-03T09:54:49.161Z,99.90
2023-04-03T09:57:18.891Z,99.50
2023-04-03T10:00:00.803Z,99.80
2023-04-03T10:02:37.989Z,99.30
2023-04-03T10:05:27.897Z,99.90
2023-04-03T10:08:11.283Z,99.90
2023-04-03T10:10:40.388Z,99.90
2023-04-03T10:13:20.260Z,98.60
2023-04-03T10:16:00.428Z,99.70
2023-04-03T10:18:39.772Z,99.60
2023-04-03T10:21:27.004Z,99.60
2023-04-03T10:24:04.025Z,99.00
2023-04-03T10:26:39.284Z,97.00
2023-04-03T10:29:19.101Z,97.00
2023-04-03T10:31:55.652Z,97.40
2023-04-03T10:34:28.735Z,97.50
2023-04-03T10:37:07.670Z,96.90
2023-04-03T10:39:47.088Z,96.50
2023-04-03T10:42:22.759Z,96.10
2023-04-03T10:45:12.661Z,96.00
2023-04-03T10:47:55.172Z,97.10
2023-04-03T10:50:33.992Z,96.50
2023-04-03T10:53:10.616Z,96.30
2023-04-03T10:55:45.009Z,97.00
2023-04-03T10:58:21.826Z,96.80
2023-04-03T11:00:53.045Z,95.70
2023-04-03T11:03:33.491Z,95.80
2023-04-03T11:06:04.334Z,96.10
2023-04-03T11:08:40.383Z,96.50
2023-04-03T11:11:13.972Z,95.40
2023-04-03T11:13:48.060Z,95.50
2023-04-03T11:16:23.405Z,95.50
2023-04-03T11:18:57.970Z,95.80
2023-04-03T11:21:32.589Z,95.50
2023-04-03T11:24:05.608Z,95.50
2023-04-03T11:26:41.041Z,94.00
2023-04-03T11:29:20.687Z,94.30
2023-04-03T11:32:26.282Z,94.60
2023-04-03T11:35:00.731Z,96.60
2023-04-03T11:37:36.710Z,94.70
2023-04-03T11:40:10.623Z,93.70
2023-04-03T11:42:44.029Z,94.60
2023-04-03T11:45:47.543Z,93.70
2023-04-03T11:48:49.038Z,94.40
2023-04-03T11:51:54.439Z,92.80
2023-04-03T11:54:53.220Z,94.60
2023-04-03T11:57:48.464Z,94.10
2023-04-03T12:00:52.514Z,93.60
2023-04-03T12:04:01.118Z,93.90
2023-04-03T12:07:16.055Z,94.40
2023-04-03T12:10:31.799Z,93.30
2023-04-03T12:13:05.613Z,93.70
2023-04-03T12:15:54.973Z,93.70
2023-04-03T12:19:08.000Z,93.40
2023-04-03T12:22:17.832Z,93.80
2023-04-03T12:24:49.536Z,92.90
2023-04-03T12:27:31.622Z,93.40
2023-04-03T12:30:09.125Z,93.10
2023-04-03T12:33:13.650Z,93.50
2023-04-03T12:35:50.765Z,93.20
2023-04-03T12:38:43.956Z,92.60
2023-04-03T12:41:26.964Z,92.20
2023-04-03T12:44:09.414Z,94.00
2023-04-03T12:46:45.384Z,92.20
2023-04-03T12:49:37.750Z,92.40
2023-04-03T12:52:15.964Z,91.70
2023-04-03T12:54:45.420Z,92.20
2023-04-03T12:57:18.908Z,93.00
2023-04-03T12:59:48.404Z,93.50
2023-04-03T13:02:29.876Z,93.20
2023-04-03T13:05:00.745Z,93.20
2023-04-03T13:07:34.797Z,94.30
2023-04-03T13:10:16.353Z,93.10
2023-04-03T13:12:50.812Z,92.30
2023-04-03T13:15:23.975Z,92.70
2023-04-03T13:17:55.470Z,92.50
2023-04-03T13:20:28.688Z,93.00
2023-04-03T13:23:01.653Z,94.00
2023-04-03T13:25:33.466Z,94.30
2023-04-03T13:28:13.355Z,92.50
2023-04-03T13:30:57.086Z,92.00
2023-04-03T13:33:32.574Z,92.20
2023-04-03T13:36:06.570Z,91.90
2023-04-03T13:38:37.513Z,91.70
2023-04-03T13:41:24.253Z,92.10
2023-04-03T13:43:57.586Z,92.20
2023-04-03T13:46:30.830Z,93.30
2023-04-03T13:49:21.154Z,92.90
2023-04-03T13:52:00.567Z,92.30
2023-04-03T13:54:40.161Z,91.60
2023-04-03T13:57:17.056Z,92.10
2023-04-03T13:59:46.684Z,92.20
2023-04-03T14:02:19.902Z,92.40
2023-04-03T14:04:57.501Z,93.30
2023-04-03T14:07:26.982Z,91.60
2023-04-03T14:09:56.789Z,91.50
2023-04-03T14:12:31.976Z,92.20
2023-04-03T14:15:06.991Z,92.50
2023-04-03T14:17:36.276Z,92.10
2023-04-03T14:20:08.848Z,92.90
2023-04-03T14:22:39.356Z,93.40
2023-04-03T14:25:09.298Z,92.90
2023-04-03T14:27:41.680Z,92.90
2023-04-03T14:30:18.608Z,92.40
2023-04-03T14:32:48.202Z,92.50
2023-04-03T14:35:21.053Z,92.40
2023-04-03T14:37:51.320Z,91.80
2023-04-03T14:40:22.432Z,92.20
2023-04-03T14:42:51.720Z,91.90
2023-04-03T14:45:20.895Z,91.30
2023-04-03T14:47:52.867Z,92.20
2023-04-03T14:50:25.956Z,91.80
2023-04-03T14:52:57.893Z,91.70
2023-04-03T14:55:28.980Z,92.70
2023-04-03T14:57:58.028Z,92.40
2023-04-03T15:00:27.246Z,92.20
2023-04-03T15:02:56.334Z,92.00
2023-04-03T15:05:26.843Z,92.30
2023-04-03T15:08:02.108Z,92.50
2023-04-03T15:10:32.777Z,93.10
2023-04-03T15:13:01.712Z,92.60
2023-04-03T15:15:32.886Z,92.00
2023-04-03T15:18:02.572Z,92.50
2023-04-03T15:20:35.402Z,93.10
2023-04-03T15:23:05.875Z,93.20
2023-04-03T15:25:35.374Z,93.50
2023-04-03T15:28:07.637Z,92.30
2023-04-03T15:30:42.160Z,92.40
2023-04-03T15:33:11.023Z,92.10
2023-04-03T15:35:41.823Z,93.00
2023-04-03T15:38:11.123Z,92.50
2023-04-03T15:40:40.717Z,93.30
2023-04-03T15:43:10.067Z,92.70
2023-04-03T15:45:40.937Z,92.60
2023-04-03T15:48:10.380Z,92.70
2023-04-03T15:50:41.122Z,93.20
2023-04-03T15:53:10.042Z,93.70
2023-04-03T15:55:40.184Z,94.40
2023-04-03T15:58:09.049Z,93.40
2023-04-03T16:00:38.939Z,93.00
2023-04-03T16:03:11.081Z,92.60
2023-04-03T16:05:42.201Z,92.90
2023-04-03T16:08:11.619Z,93.60
2023-04-03T16:10:41.926Z,93.50
2023-04-03T16:13:10.957Z,93.50
2023-04-03T16:15:40.084Z,93.50
2023-04-03T16:18:11.042Z,93.00
2023-04-03T16:20:41.612Z,92.20
2023-04-03T16:23:10.609Z,92.30
2023-04-03T16:25:39.772Z,92.10
2023-04-03T16:28:10.328Z,92.20
2023-04-03T16:30:39.204Z,92.50
2023-04-03T16:33:08.538Z,92.50
2023-04-03T16:35:37.472Z,92.80
2023-04-03T16:38:13.038Z,92.90
2023-04-03T16:40:42.060Z,92.70
2023-04-03T16:43:11.616Z,92.30
2023-04-03T16:45:40.941Z,92.60
2023-04-03T16:48:10.050Z,92.40
2023-04-03T16:50:39.264Z,92.60
2023-04-03T16:53:10.760Z,92.90
2023-04-03T16:55:42.042Z,93.40
2023-04-03T16:58:11.413Z,93.50
2023-04-03T17:00:43.288Z,93.20
2023-04-03T17:03:12.731Z,93.20
2023-04-03T17:05:42.166Z,92.70
2023-04-03T17:08:12.501Z,92.50
2023-04-03T17:10:50.173Z,92.70
2023-04-03T17:13:19.912Z,93.10
2023-04-03T17:15:48.736Z,92.80
2023-04-03T17:18:17.936Z,93.20
2023-04-03T17:20:47.851Z,93.70
2023-04-03T17:23:18.069Z,93.30
2023-04-03T17:25:46.966Z,93.90
2023-04-03T17:28:16.227Z,93.60
2023-04-03T17:30:44.916Z,93.50
2023-04-03T17:33:14.305Z,93.70
2023-04-03T17:35:43.038Z,94.10
2023-04-03T17:38:11.800Z,93.70
2023-04-03T17:40:43.649Z,93.70
2023-04-03T17:43:17.418Z,94.00
2023-04-03T17:45:46.250Z,93.70
2023-04-03T17:48:15.062Z,93.80
2023-04-03T17:50:43.948Z,93.90
2023-04-03T17:53:12.784Z,94.50
2023-04-03T17:55:43.228Z,94.30
2023-04-03T17:58:15.197Z,94.80
2023-04-03T18:00:43.959Z,94.10
2023-04-03T18:03:12.681Z,94.50
2023-04-03T18:05:42.413Z,94.90
2023-04-03T18:08:11.122Z,95.20
2023-04-03T18:10:40.023Z,95.20
2023-04-03T18:13:11.101Z,96.00
2023-04-03T18:15:45.856Z,95.80
2023-04-03T18:18:15.000Z,96.00
2023-04-03T18:20:45.074Z,96.10
2023-04-03T18:23:14.130Z,96.50
2023-04-03T18:25:43.016Z,96.80
2023-04-03T18:28:13.431Z,96.80
2023-04-03T18:30:47.306Z,97.20
2023-04-03T18:33:16.096Z,96.90
2023-04-03T18:35:45.297Z,97.20
2023-04-03T18:38:14.380Z,96.70
2023-04-03T18:40:47.666Z,96.90
2023-04-03T18:43:18.259Z,97.30
2023-04-03T18:45:48.310Z,97.50
2023-04-03T18:48:17.648Z,97.40
2023-04-03T18:50:47.392Z,97.10
2023-04-03T18:53:17.746Z,97.50
2023-04-03T18:55:47.064Z,97.80
2023-04-03T18:58:17.918Z,98.10
2023-04-03T19:00:47.338Z,98.40
2023-04-03T19:03:16.344Z,98.80
2023-04-03T19:05:46.568Z,99.00
2023-04-03T19:08:15.700Z,98.90
2023-04-03T19:10:44.610Z,99.50
2023-04-03T19:13:13.487Z,99.50
2023-04-03T19:15:44.028Z,99.90
2023-04-03T19:18:12.802Z,99.90
2023-04-03T19:20:41.832Z,99.90
2023-04-03T19:23:13.024Z,99.90
2023-04-03T19:25:42.106Z,99.90
2023-04-03T19:28:13.126Z,99.90
2023-04-03T19:30:48.522Z,99.90
2023-04-03T19:33:17.313Z,99.90
2023-04-03T19:35:46.458Z,99.90
2023-04-03T19:38:15.725Z,99.90
2023-04-03T19:40:45.754Z,99.90
2023-04-03T19:43:17.032Z,99.90
2023-04-03T19:45:49.959Z,99.90
2023-04-03T19:48:20.065Z,99.90
2023-04-03T19:50:49.024Z,99.90
2023-04-03T19:53:21.619Z,99.90
2023-04-03T19:55:51.260Z,99.90
2023-04-03T19:58:21.160Z,99.90
2023-04-03T20:00:53.771Z,99.90
2023-04-03T20:03:24.079Z,99.90
2023-04-03T20:05:53.328Z,99.90
2023-04-03T20:08:23.250Z,99.90
2023-04-03T20:10:52.437Z,99.90
2023-04-03T20:13:21.818Z,99.90
2023-04-03T20:15:52.519Z,99.90
2023-04-03T20:18:22.537Z,99.90
2023-04-03T20:20:55.919Z,99.90
2023-04-03T20:23:25.580Z,99.90
2023-04-03T20:26:09.379Z,99.90
2023-04-03T20:28:41.940Z,99.90
2023-04-03T20:31:14.022Z,99.90
2023-04-03T20:33:42.994Z,99.90
2023-04-03T20:36:12.435Z,99.90
2023-04-03T20:38:41.775Z,99.90
2023-04-03T20:41:10.874Z,99.90
2023-04-03T20:43:42.936Z,99.90
2023-04-03T20:46:14.330Z,99.90
2023-04-03T20:48:46.884Z,99.90
2023-04-03T20:51:18.879Z,99.90
2023-04-03T20:53:50.425Z,99.90
2023-04-03T20:56:19.343Z,99.90
2023-04-03T20:58:49.834Z,99.90
2023-04-03T21:01:22.944Z,99.90
2023-04-03T21:03:58.738Z,99.90
2023-04-03T21:07:05.829Z,99.90
2023-04-03T21:10:12.641Z,99.90
2023-04-03T21:13:29.923Z,99.90
2023-04-03T21:16:00.345Z,99.90
2023-04-03T21:18:48.295Z,99.90
2023-04-03T21:21:22.525Z,99.90
2023-04-03T21:23:52.759Z,99.90
2023-04-03T21:26:23.090Z,99.90
2023-04-03T21:28:53.523Z,99.90
2023-04-03T21:31:23.964Z,99.90
2023-04-03T21:33:54.933Z,99.90
2023-04-03T21:36:23.776Z,99.90
2023-04-03T21:38:53.155Z,99.90
2023-04-03T21:41:22.341Z,99.90
2023-04-03T21:43:51.274Z,99.90
2023-04-03T21:46:20.876Z,99.90
2023-04-03T21:48:49.639Z,99.90
2023-04-03T21:51:20.267Z,99.90
2023-04-03T21:53:52.939Z,99.90
2023-04-03T21:56:23.259Z,99.90
2023-04-03T21:58:52.530Z,99.90
2023-04-03T22:01:23.094Z,99.90
2023-04-03T22:03:51.943Z,99.90
2023-04-03T22:06:22.506Z,99.90
2023-04-03T22:08:51.347Z,99.90
2023-04-03T22:11:23.159Z,99.90
2023-04-03T22:13:54.580Z,99.90
2023-04-03T22:16:24.473Z,99.90
2023-04-03T22:18:53.877Z,99.90
2023-04-03T22:21:25.358Z,99.90
2023-04-03T22:23:54.824Z,99.90
2023-04-03T22:26:23.609Z,99.90
2023-04-03T22:28:52.534Z,99.90
2023-04-03T22:31:21.521Z,99.90
2023-04-03T22:33:50.274Z,99.90
2023-04-03T22:36:19.346Z,99.90
2023-04-03T22:38:49.662Z,99.90
2023-04-03T22:41:18.395Z,99.90
2023-04-03T22:43:47.041Z,99.90
2023-04-03T22:46:16.028Z,99.90
2023-04-03T22:48:45.475Z,99.90
2023-04-03T22:51:14.337Z,99.90
2023-04-03T22:53:42.953Z,99.90
2023-04-03T22:56:14.060Z,99.90
2023-04-03T22:58:43.438Z,99.90
2023-04-03T23:01:13.530Z,99.90
2023-04-03T23:03:43.288Z,99.90
2023-04-03T23:06:12.915Z,99.90
2023-04-03T23:08:42.597Z,99.90
2023-04-03T23:11:12.808Z,99.90
2023-04-03T23:13:43.748Z,99.90
2023-04-03T23:16:12.682Z,99.90
2023-04-03T23:18:43.830Z,99.90
2023-04-03T23:21:12.595Z,99.90
2023-04-03T23:23:41.318Z,99.90
2023-04-03T23:26:10.454Z,99.90
2023-04-03T23:28:41.955Z,99.90
2023-04-03T23:31:10.704Z,99.90
2023-04-03T23:33:43.956Z,99.90
2023-04-03T23:36:16.142Z,99.90
2023-04-03T23:38:44.839Z,99.90
2023-04-03T23:41:13.720Z,99.90
2023-04-03T23:43:43.978Z,99.90
2023-04-03T23:46:12.666Z,99.90
2023-04-03T23:48:41.608Z,99.90
2023-04-03T23:51:10.285Z,99.90
2023-04-03T23:53:38.832Z,99.90
2023-04-03T23:56:11.785Z,99.90
2023-04-03T23:58:40.366Z,99.90
